sensor_id;sensor_type;location;lat;lon;timestamp;P1;durP1;ratioP1;P2;durP2;ratioP2
76761;SDS011;65705;51.032;13.790;2023-07-20T00:01:26;4.65;;;2.25;;
76761;SDS011;65705;51.032;13.790;2023-07-20T00:03:51;7.80;;;2.53;;
76761;SDS011;65705;51.032;13.790;2023-07-20T00:06:24;3.85;;;2.33;;
76761;SDS011;65705;51.032;13.790;2023-07-20T00:08:55;4.28;;;2.33;;
76761;SDS011;65705;51.032;13.790;2023-07-20T00:11:25;4.93;;;2.10;;
76761;SDS011;65705;51.032;13.790;2023-07-20T00:13:51;4.60;;;2.30;;
76761;SDS011;65705;51.032;13.790;2023-07-20T00:16:17;8.45;;;2.33;;
76761;SDS011;65705;51.032;13.790;2023-07-20T00:18:43;3.78;;;2.25;;
76761;SDS011;65705;51.032;13.790;2023-07-20T00:21:09;5.25;;;2.35;;
76761;SDS011;65705;51.032;13.790;2023-07-20T00:23:34;4.57;;;2.22;;
76761;SDS011;65705;51.032;13.790;2023-07-20T00:26:00;7.50;;;2.30;;
76761;SDS011;65705;51.032;13.790;2023-07-20T00:28:26;4.25;;;2.15;;
76761;SDS011;65705;51.032;13.790;2023-07-20T00:30:52;10.25;;;2.33;;
76761;SDS011;65705;51.032;13.790;2023-07-20T00:33:18;6.18;;;2.45;;
76761;SDS011;65705;51.032;13.790;2023-07-20T00:35:43;5.75;;;2.22;;
76761;SDS011;65705;51.032;13.790;2023-07-20T00:38:09;3.90;;;2.33;;
76761;SDS011;65705;51.032;13.790;2023-07-20T00:40:39;4.10;;;2.22;;
76761;SDS011;65705;51.032;13.790;2023-07-20T00:43:05;5.65;;;2.40;;
76761;SDS011;65705;51.032;13.790;2023-07-20T00:45:32;4.55;;;2.20;;
76761;SDS011;65705;51.032;13.790;2023-07-20T00:47:59;4.32;;;1.98;;
76761;SDS011;65705;51.032;13.790;2023-07-20T00:50:27;5.22;;;1.98;;
76761;SDS011;65705;51.032;13.790;2023-07-20T00:52:57;3.55;;;1.70;;
76761;SDS011;65705;51.032;13.790;2023-07-20T00:55:23;3.65;;;1.70;;
76761;SDS011;65705;51.032;13.790;2023-07-20T00:57:52;3.00;;;1.77;;
76761;SDS011;65705;51.032;13.790;2023-07-20T01:00:18;4.20;;;1.67;;
76761;SDS011;65705;51.032;13.790;2023-07-20T01:02:44;3.90;;;1.88;;
76761;SDS011;65705;51.032;13.790;2023-07-20T01:05:10;5.20;;;2.00;;
76761;SDS011;65705;51.032;13.790;2023-07-20T01:13:12;3.50;;;1.35;;
76761;SDS011;65705;51.032;13.790;2023-07-20T01:15:39;3.15;;;1.48;;
76761;SDS011;65705;51.032;13.790;2023-07-20T01:18:05;4.25;;;1.38;;
76761;SDS011;65705;51.032;13.790;2023-07-20T01:20:31;3.25;;;1.50;;
76761;SDS011;65705;51.032;13.790;2023-07-20T01:33:44;4.38;;;1.17;;
76761;SDS011;65705;51.032;13.790;2023-07-20T01:36:12;5.60;;;1.27;;
76761;SDS011;65705;51.032;13.790;2023-07-20T01:38:40;2.63;;;1.02;;
76761;SDS011;65705;51.032;13.790;2023-07-20T01:41:06;4.95;;;1.20;;
76761;SDS011;65705;51.032;13.790;2023-07-20T01:43:33;3.58;;;1.52;;
76761;SDS011;65705;51.032;13.790;2023-07-20T01:45:59;5.57;;;1.70;;
76761;SDS011;65705;51.032;13.790;2023-07-20T01:48:26;5.95;;;1.40;;
76761;SDS011;65705;51.032;13.790;2023-07-20T01:50:52;7.50;;;1.85;;
76761;SDS011;65705;51.032;13.790;2023-07-20T01:53:18;3.13;;;1.77;;
76761;SDS011;65705;51.032;13.790;2023-07-20T01:55:43;8.93;;;2.10;;
76761;SDS011;65705;51.032;13.790;2023-07-20T01:58:09;2.97;;;1.58;;
76761;SDS011;65705;51.032;13.790;2023-07-20T02:00:36;6.10;;;1.85;;
76761;SDS011;65705;51.032;13.790;2023-07-20T02:03:02;2.90;;;1.63;;
76761;SDS011;65705;51.032;13.790;2023-07-20T02:05:28;4.82;;;1.80;;
76761;SDS011;65705;51.032;13.790;2023-07-20T02:07:54;6.35;;;1.83;;
76761;SDS011;65705;51.032;13.790;2023-07-20T02:10:21;5.20;;;1.73;;
76761;SDS011;65705;51.032;13.790;2023-07-20T02:12:47;7.22;;;2.10;;
76761;SDS011;65705;51.032;13.790;2023-07-20T02:15:14;10.63;;;2.55;;
76761;SDS011;65705;51.032;13.790;2023-07-20T02:17:42;4.72;;;2.05;;
76761;SDS011;65705;51.032;13.790;2023-07-20T02:20:08;6.38;;;2.00;;
76761;SDS011;65705;51.032;13.790;2023-07-20T02:22:38;6.55;;;2.30;;
76761;SDS011;65705;51.032;13.790;2023-07-20T02:25:05;4.63;;;1.90;;
76761;SDS011;65705;51.032;13.790;2023-07-20T02:27:32;6.38;;;2.22;;
76761;SDS011;65705;51.032;13.790;2023-07-20T02:29:59;7.65;;;2.50;;
76761;SDS011;65705;51.032;13.790;2023-07-20T02:32:24;6.88;;;2.28;;
76761;SDS011;65705;51.032;13.790;2023-07-20T02:34:50;4.03;;;2.00;;
76761;SDS011;65705;51.032;13.790;2023-07-20T02:37:16;6.07;;;2.60;;
76761;SDS011;65705;51.032;13.790;2023-07-20T02:39:42;7.47;;;2.42;;
76761;SDS011;65705;51.032;13.790;2023-07-20T02:42:08;5.28;;;2.65;;
76761;SDS011;65705;51.032;13.790;2023-07-20T02:44:34;6.72;;;2.45;;
76761;SDS011;65705;51.032;13.790;2023-07-20T02:46:59;5.82;;;3.05;;
76761;SDS011;65705;51.032;13.790;2023-07-20T02:49:26;5.80;;;2.17;;
76761;SDS011;65705;51.032;13.790;2023-07-20T02:51:52;7.10;;;2.83;;
76761;SDS011;65705;51.032;13.790;2023-07-20T02:54:18;8.90;;;2.47;;
76761;SDS011;65705;51.032;13.790;2023-07-20T02:56:44;9.63;;;2.47;;
76761;SDS011;65705;51.032;13.790;2023-07-20T02:59:09;7.22;;;3.17;;
76761;SDS011;65705;51.032;13.790;2023-07-20T03:01:35;5.03;;;2.28;;
76761;SDS011;65705;51.032;13.790;2023-07-20T03:04:01;3.95;;;2.40;;
76761;SDS011;65705;51.032;13.790;2023-07-20T03:06:27;9.85;;;2.75;;
76761;SDS011;65705;51.032;13.790;2023-07-20T03:08:53;6.10;;;2.40;;
76761;SDS011;65705;51.032;13.790;2023-07-20T03:11:19;6.32;;;2.75;;
76761;SDS011;65705;51.032;13.790;2023-07-20T03:13:46;6.20;;;2.50;;
76761;SDS011;65705;51.032;13.790;2023-07-20T03:16:13;6.03;;;3.00;;
76761;SDS011;65705;51.032;13.790;2023-07-20T03:18:41;5.43;;;2.78;;
76761;SDS011;65705;51.032;13.790;2023-07-20T03:21:08;6.63;;;3.13;;
76761;SDS011;65705;51.032;13.790;2023-07-20T03:23:37;7.95;;;3.35;;
76761;SDS011;65705;51.032;13.790;2023-07-20T03:26:03;6.57;;;2.83;;
76761;SDS011;65705;51.032;13.790;2023-07-20T03:28:30;6.10;;;2.70;;
76761;SDS011;65705;51.032;13.790;2023-07-20T03:30:56;7.35;;;3.15;;
76761;SDS011;65705;51.032;13.790;2023-07-20T03:33:26;8.25;;;3.53;;
76761;SDS011;65705;51.032;13.790;2023-07-20T03:35:54;5.65;;;3.00;;
76761;SDS011;65705;51.032;13.790;2023-07-20T03:38:20;11.18;;;3.05;;
76761;SDS011;65705;51.032;13.790;2023-07-20T03:40:51;6.63;;;3.00;;
76761;SDS011;65705;51.032;13.790;2023-07-20T03:43:17;7.15;;;2.85;;
76761;SDS011;65705;51.032;13.790;2023-07-20T03:45:43;5.80;;;2.67;;
76761;SDS011;65705;51.032;13.790;2023-07-20T03:48:11;8.88;;;3.28;;
76761;SDS011;65705;51.032;13.790;2023-07-20T03:50:38;6.47;;;2.78;;
76761;SDS011;65705;51.032;13.790;2023-07-20T03:53:03;7.28;;;2.72;;
76761;SDS011;65705;51.032;13.790;2023-07-20T03:55:30;8.90;;;3.08;;
76761;SDS011;65705;51.032;13.790;2023-07-20T03:57:56;8.57;;;3.35;;
76761;SDS011;65705;51.032;13.790;2023-07-20T04:00:21;6.85;;;3.00;;
76761;SDS011;65705;51.032;13.790;2023-07-20T04:02:48;10.30;;;3.35;;
76761;SDS011;65705;51.032;13.790;2023-07-20T04:05:14;8.80;;;2.95;;
76761;SDS011;65705;51.032;13.790;2023-07-20T04:07:40;6.15;;;3.40;;
76761;SDS011;65705;51.032;13.790;2023-07-20T04:10:06;9.35;;;2.88;;
76761;SDS011;65705;51.032;13.790;2023-07-20T04:12:34;7.25;;;3.15;;
76761;SDS011;65705;51.032;13.790;2023-07-20T04:15:00;11.20;;;2.92;;
76761;SDS011;65705;51.032;13.790;2023-07-20T04:17:27;7.38;;;3.28;;
76761;SDS011;65705;51.032;13.790;2023-07-20T04:19:53;5.57;;;2.53;;
76761;SDS011;65705;51.032;13.790;2023-07-20T04:22:18;7.50;;;3.13;;
76761;SDS011;65705;51.032;13.790;2023-07-20T04:24:44;4.97;;;3.05;;
76761;SDS011;65705;51.032;13.790;2023-07-20T04:27:10;6.97;;;2.85;;
76761;SDS011;65705;51.032;13.790;2023-07-20T04:29:36;7.05;;;3.03;;
76761;SDS011;65705;51.032;13.790;2023-07-20T04:32:01;8.70;;;3.38;;
76761;SDS011;65705;51.032;13.790;2023-07-20T04:34:28;7.80;;;3.17;;
76761;SDS011;65705;51.032;13.790;2023-07-20T04:36:54;7.57;;;3.13;;
76761;SDS011;65705;51.032;13.790;2023-07-20T04:39:21;7.57;;;2.80;;
76761;SDS011;65705;51.032;13.790;2023-07-20T04:41:48;6.53;;;3.40;;
76761;SDS011;65705;51.032;13.790;2023-07-20T04:44:15;7.82;;;3.10;;
76761;SDS011;65705;51.032;13.790;2023-07-20T04:46:41;11.40;;;3.42;;
76761;SDS011;65705;51.032;13.790;2023-07-20T04:49:07;7.38;;;3.70;;
76761;SDS011;65705;51.032;13.790;2023-07-20T04:51:37;9.32;;;3.72;;
76761;SDS011;65705;51.032;13.790;2023-07-20T04:54:03;7.00;;;3.00;;
76761;SDS011;65705;51.032;13.790;2023-07-20T04:56:33;8.75;;;3.63;;
76761;SDS011;65705;51.032;13.790;2023-07-20T04:59:00;6.82;;;3.95;;
76761;SDS011;65705;51.032;13.790;2023-07-20T05:01:26;7.22;;;3.70;;
76761;SDS011;65705;51.032;13.790;2023-07-20T05:03:54;7.75;;;3.42;;
76761;SDS011;65705;51.032;13.790;2023-07-20T05:06:20;7.35;;;4.07;;
76761;SDS011;65705;51.032;13.790;2023-07-20T05:08:46;7.05;;;4.47;;
76761;SDS011;65705;51.032;13.790;2023-07-20T05:11:11;8.25;;;4.40;;
76761;SDS011;65705;51.032;13.790;2023-07-20T05:13:38;8.68;;;4.93;;
76761;SDS011;65705;51.032;13.790;2023-07-20T05:16:03;11.73;;;3.88;;
76761;SDS011;65705;51.032;13.790;2023-07-20T05:18:31;8.82;;;3.58;;
76761;SDS011;65705;51.032;13.790;2023-07-20T05:20:56;11.15;;;3.95;;
76761;SDS011;65705;51.032;13.790;2023-07-20T05:23:22;10.75;;;3.45;;
76761;SDS011;65705;51.032;13.790;2023-07-20T05:25:54;9.07;;;3.85;;
76761;SDS011;65705;51.032;13.790;2023-07-20T05:28:24;8.82;;;4.00;;
76761;SDS011;65705;51.032;13.790;2023-07-20T05:30:52;10.07;;;3.25;;
76761;SDS011;65705;51.032;13.790;2023-07-20T05:33:18;9.80;;;4.07;;
76761;SDS011;65705;51.032;13.790;2023-07-20T05:35:44;8.45;;;3.38;;
76761;SDS011;65705;51.032;13.790;2023-07-20T05:38:10;10.80;;;5.65;;
76761;SDS011;65705;51.032;13.790;2023-07-20T05:40:40;9.23;;;3.40;;
76761;SDS011;65705;51.032;13.790;2023-07-20T05:43:08;7.00;;;3.60;;
76761;SDS011;65705;51.032;13.790;2023-07-20T05:45:34;10.13;;;3.33;;
76761;SDS011;65705;51.032;13.790;2023-07-20T05:47:59;5.55;;;2.90;;
76761;SDS011;65705;51.032;13.790;2023-07-20T05:50:25;13.63;;;3.80;;
76761;SDS011;65705;51.032;13.790;2023-07-20T05:52:54;10.85;;;3.60;;
76761;SDS011;65705;51.032;13.790;2023-07-20T05:55:20;6.82;;;3.05;;
76761;SDS011;65705;51.032;13.790;2023-07-20T05:57:46;11.07;;;3.45;;
76761;SDS011;65705;51.032;13.790;2023-07-20T06:00:13;9.27;;;3.38;;
76761;SDS011;65705;51.032;13.790;2023-07-20T06:02:39;10.55;;;3.50;;
76761;SDS011;65705;51.032;13.790;2023-07-20T06:05:06;7.93;;;3.20;;
76761;SDS011;65705;51.032;13.790;2023-07-20T06:07:38;7.45;;;3.33;;
76761;SDS011;65705;51.032;13.790;2023-07-20T06:10:04;10.55;;;3.30;;
76761;SDS011;65705;51.032;13.790;2023-07-20T06:12:31;8.43;;;3.65;;
76761;SDS011;65705;51.032;13.790;2023-07-20T06:15:01;8.25;;;3.15;;
76761;SDS011;65705;51.032;13.790;2023-07-20T06:17:29;9.32;;;3.80;;
76761;SDS011;65705;51.032;13.790;2023-07-20T06:19:54;8.45;;;4.03;;
76761;SDS011;65705;51.032;13.790;2023-07-20T06:22:20;12.18;;;4.78;;
76761;SDS011;65705;51.032;13.790;2023-07-20T06:24:46;6.22;;;3.60;;
76761;SDS011;65705;51.032;13.790;2023-07-20T06:27:12;10.05;;;4.68;;
76761;SDS011;65705;51.032;13.790;2023-07-20T06:29:38;7.63;;;4.40;;
76761;SDS011;65705;51.032;13.790;2023-07-20T06:32:04;10.82;;;4.85;;
76761;SDS011;65705;51.032;13.790;2023-07-20T06:34:30;10.40;;;3.95;;
76761;SDS011;65705;51.032;13.790;2023-07-20T06:36:56;9.18;;;4.70;;
76761;SDS011;65705;51.032;13.790;2023-07-20T06:39:22;7.60;;;4.78;;
76761;SDS011;65705;51.032;13.790;2023-07-20T06:41:48;10.20;;;4.85;;
76761;SDS011;65705;51.032;13.790;2023-07-20T06:44:13;12.35;;;5.60;;
76761;SDS011;65705;51.032;13.790;2023-07-20T06:46:39;10.73;;;5.82;;
76761;SDS011;65705;51.032;13.790;2023-07-20T06:49:06;12.77;;;7.38;;
76761;SDS011;65705;51.032;13.790;2023-07-20T06:51:33;15.43;;;8.07;;
76761;SDS011;65705;51.032;13.790;2023-07-20T06:53:59;8.80;;;5.68;;
76761;SDS011;65705;51.032;13.790;2023-07-20T06:56:24;10.15;;;4.75;;
76761;SDS011;65705;51.032;13.790;2023-07-20T06:58:50;7.22;;;5.13;;
76761;SDS011;65705;51.032;13.790;2023-07-20T07:01:16;12.05;;;4.60;;
76761;SDS011;65705;51.032;13.790;2023-07-20T07:03:42;8.38;;;4.07;;
76761;SDS011;65705;51.032;13.790;2023-07-20T07:06:09;9.02;;;4.55;;
76761;SDS011;65705;51.032;13.790;2023-07-20T07:08:35;8.25;;;3.90;;
76761;SDS011;65705;51.032;13.790;2023-07-20T07:11:01;13.35;;;3.75;;
76761;SDS011;65705;51.032;13.790;2023-07-20T07:13:27;7.85;;;3.00;;
76761;SDS011;65705;51.032;13.790;2023-07-20T07:15:53;9.13;;;3.92;;
76761;SDS011;65705;51.032;13.790;2023-07-20T07:18:19;11.93;;;3.60;;
76761;SDS011;65705;51.032;13.790;2023-07-20T07:20:52;7.68;;;3.30;;
76761;SDS011;65705;51.032;13.790;2023-07-20T07:23:19;6.30;;;2.97;;
76761;SDS011;65705;51.032;13.790;2023-07-20T07:25:45;7.82;;;2.97;;
76761;SDS011;65705;51.032;13.790;2023-07-20T07:28:11;5.30;;;2.55;;
76761;SDS011;65705;51.032;13.790;2023-07-20T07:30:36;6.30;;;3.42;;
76761;SDS011;65705;51.032;13.790;2023-07-20T07:33:02;6.97;;;3.45;;
76761;SDS011;65705;51.032;13.790;2023-07-20T07:35:28;6.85;;;4.28;;
76761;SDS011;65705;51.032;13.790;2023-07-20T07:37:54;5.20;;;3.60;;
76761;SDS011;65705;51.032;13.790;2023-07-20T07:40:20;8.40;;;3.35;;
76761;SDS011;65705;51.032;13.790;2023-07-20T07:42:46;5.40;;;3.15;;
76761;SDS011;65705;51.032;13.790;2023-07-20T07:45:13;7.57;;;3.47;;
76761;SDS011;65705;51.032;13.790;2023-07-20T07:47:39;5.88;;;2.92;;
76761;SDS011;65705;51.032;13.790;2023-07-20T07:50:05;7.65;;;3.72;;
76761;SDS011;65705;51.032;13.790;2023-07-20T07:52:31;11.15;;;2.70;;
76761;SDS011;65705;51.032;13.790;2023-07-20T07:54:57;7.53;;;2.53;;
76761;SDS011;65705;51.032;13.790;2023-07-20T07:57:23;5.65;;;3.13;;
76761;SDS011;65705;51.032;13.790;2023-07-20T07:59:49;6.38;;;2.40;;
76761;SDS011;65705;51.032;13.790;2023-07-20T08:02:15;4.78;;;2.15;;
76761;SDS011;65705;51.032;13.790;2023-07-20T08:04:41;6.10;;;3.03;;
76761;SDS011;65705;51.032;13.790;2023-07-20T08:07:07;6.22;;;2.78;;
76761;SDS011;65705;51.032;13.790;2023-07-20T08:09:32;4.82;;;2.58;;
76761;SDS011;65705;51.032;13.790;2023-07-20T08:11:58;9.27;;;3.20;;
76761;SDS011;65705;51.032;13.790;2023-07-20T08:14:24;6.75;;;2.70;;
76761;SDS011;65705;51.032;13.790;2023-07-20T08:16:50;9.25;;;3.08;;
76761;SDS011;65705;51.032;13.790;2023-07-20T08:19:17;5.68;;;3.20;;
76761;SDS011;65705;51.032;13.790;2023-07-20T08:21:42;6.55;;;3.03;;
76761;SDS011;65705;51.032;13.790;2023-07-20T08:24:08;8.85;;;3.38;;
76761;SDS011;65705;51.032;13.790;2023-07-20T08:26:34;6.88;;;3.10;;
76761;SDS011;65705;51.032;13.790;2023-07-20T08:29:00;9.82;;;3.30;;
76761;SDS011;65705;51.032;13.790;2023-07-20T08:31:25;5.35;;;3.47;;
76761;SDS011;65705;51.032;13.790;2023-07-20T08:33:53;6.25;;;3.15;;
76761;SDS011;65705;51.032;13.790;2023-07-20T08:36:19;7.13;;;3.47;;
76761;SDS011;65705;51.032;13.790;2023-07-20T08:38:45;5.57;;;3.30;;
76761;SDS011;65705;51.032;13.790;2023-07-20T08:41:10;5.85;;;3.50;;
76761;SDS011;65705;51.032;13.790;2023-07-20T08:43:37;7.07;;;3.72;;
76761;SDS011;65705;51.032;13.790;2023-07-20T08:46:07;5.95;;;3.45;;
76761;SDS011;65705;51.032;13.790;2023-07-20T08:48:36;6.85;;;3.60;;
76761;SDS011;65705;51.032;13.790;2023-07-20T08:51:02;6.75;;;4.03;;
76761;SDS011;65705;51.032;13.790;2023-07-20T08:53:31;7.47;;;3.85;;
76761;SDS011;65705;51.032;13.790;2023-07-20T08:55:59;7.85;;;4.38;;
76761;SDS011;65705;51.032;13.790;2023-07-20T08:58:26;6.32;;;3.75;;
76761;SDS011;65705;51.032;13.790;2023-07-20T09:00:53;7.07;;;4.30;;
76761;SDS011;65705;51.032;13.790;2023-07-20T09:03:19;9.05;;;3.45;;
76761;SDS011;65705;51.032;13.790;2023-07-20T09:05:45;4.57;;;2.65;;
76761;SDS011;65705;51.032;13.790;2023-07-20T09:08:11;7.35;;;3.05;;
76761;SDS011;65705;51.032;13.790;2023-07-20T09:10:37;4.35;;;2.30;;
76761;SDS011;65705;51.032;13.790;2023-07-20T09:13:03;3.95;;;2.50;;
76761;SDS011;65705;51.032;13.790;2023-07-20T09:15:29;4.68;;;2.90;;
76761;SDS011;65705;51.032;13.790;2023-07-20T09:17:56;9.02;;;2.50;;
76761;SDS011;65705;51.032;13.790;2023-07-20T09:20:22;5.47;;;2.10;;
76761;SDS011;65705;51.032;13.790;2023-07-20T09:22:47;5.70;;;3.00;;
76761;SDS011;65705;51.032;13.790;2023-07-20T09:25:16;4.50;;;2.75;;
76761;SDS011;65705;51.032;13.790;2023-07-20T09:27:47;5.63;;;3.22;;
76761;SDS011;65705;51.032;13.790;2023-07-20T09:30:14;8.43;;;2.83;;
76761;SDS011;65705;51.032;13.790;2023-07-20T09:32:42;6.97;;;2.38;;
76761;SDS011;65705;51.032;13.790;2023-07-20T09:35:15;4.35;;;2.45;;
76761;SDS011;65705;51.032;13.790;2023-07-20T09:37:53;5.35;;;2.13;;
76761;SDS011;65705;51.032;13.790;2023-07-20T09:40:19;5.80;;;2.33;;
76761;SDS011;65705;51.032;13.790;2023-07-20T09:42:46;5.47;;;2.33;;
76761;SDS011;65705;51.032;13.790;2023-07-20T09:45:12;5.80;;;2.40;;
76761;SDS011;65705;51.032;13.790;2023-07-20T09:47:38;4.88;;;2.70;;
76761;SDS011;65705;51.032;13.790;2023-07-20T09:50:05;5.00;;;2.80;;
76761;SDS011;65705;51.032;13.790;2023-07-20T09:52:39;5.97;;;2.67;;
76761;SDS011;65705;51.032;13.790;2023-07-20T09:55:06;3.97;;;2.25;;
76761;SDS011;65705;51.032;13.790;2023-07-20T09:57:34;4.25;;;2.63;;
76761;SDS011;65705;51.032;13.790;2023-07-20T10:00:02;5.57;;;2.60;;
76761;SDS011;65705;51.032;13.790;2023-07-20T10:02:36;6.03;;;2.50;;
76761;SDS011;65705;51.032;13.790;2023-07-20T10:05:06;3.17;;;2.10;;
76761;SDS011;65705;51.032;13.790;2023-07-20T10:07:35;5.53;;;2.97;;
76761;SDS011;65705;51.032;13.790;2023-07-20T10:10:05;6.68;;;2.30;;
76761;SDS011;65705;51.032;13.790;2023-07-20T10:12:36;4.03;;;2.75;;
76761;SDS011;65705;51.032;13.790;2023-07-20T10:17:49;5.40;;;3.70;;
76761;SDS011;65705;51.032;13.790;2023-07-20T10:20:27;5.00;;;3.70;;
76761;SDS011;65705;51.032;13.790;2023-07-20T10:22:54;5.30;;;3.45;;
76761;SDS011;65705;51.032;13.790;2023-07-20T10:25:25;7.45;;;4.10;;
76761;SDS011;65705;51.032;13.790;2023-07-20T10:27:51;8.02;;;4.80;;
76761;SDS011;65705;51.032;13.790;2023-07-20T10:30:17;6.45;;;4.63;;
76761;SDS011;65705;51.032;13.790;2023-07-20T10:32:44;16.05;;;8.07;;
76761;SDS011;65705;51.032;13.790;2023-07-20T10:35:17;9.57;;;4.85;;
76761;SDS011;65705;51.032;13.790;2023-07-20T10:43:05;9.98;;;6.43;;
76761;SDS011;65705;51.032;13.790;2023-07-20T10:45:36;5.95;;;4.07;;
76761;SDS011;65705;51.032;13.790;2023-07-20T10:48:05;7.30;;;3.97;;
76761;SDS011;65705;51.032;13.790;2023-07-20T10:50:32;14.48;;;6.70;;
76761;SDS011;65705;51.032;13.790;2023-07-20T10:55:42;8.00;;;3.85;;
76761;SDS011;65705;51.032;13.790;2023-07-20T10:58:13;7.30;;;3.70;;
76761;SDS011;65705;51.032;13.790;2023-07-20T11:03:31;4.38;;;2.72;;
76761;SDS011;65705;51.032;13.790;2023-07-20T11:06:01;4.68;;;2.67;;
76761;SDS011;65705;51.032;13.790;2023-07-20T11:08:55;4.85;;;2.38;;
76761;SDS011;65705;51.032;13.790;2023-07-20T11:11:22;6.13;;;2.30;;
76761;SDS011;65705;51.032;13.790;2023-07-20T11:13:55;4.75;;;2.53;;
76761;SDS011;65705;51.032;13.790;2023-07-20T11:16:41;4.40;;;2.50;;
76761;SDS011;65705;51.032;13.790;2023-07-20T11:19:29;3.45;;;2.10;;
76761;SDS011;65705;51.032;13.790;2023-07-20T11:21:55;5.70;;;3.33;;
76761;SDS011;65705;51.032;13.790;2023-07-20T11:24:23;3.75;;;2.50;;
76761;SDS011;65705;51.032;13.790;2023-07-20T11:26:52;8.02;;;3.00;;
76761;SDS011;65705;51.032;13.790;2023-07-20T11:29:20;5.65;;;3.30;;
76761;SDS011;65705;51.032;13.790;2023-07-20T11:31:48;6.25;;;3.05;;
76761;SDS011;65705;51.032;13.790;2023-07-20T11:34:15;4.57;;;3.20;;
76761;SDS011;65705;51.032;13.790;2023-07-20T11:36:43;4.78;;;2.90;;
76761;SDS011;65705;51.032;13.790;2023-07-20T11:39:11;4.15;;;3.33;;
76761;SDS011;65705;51.032;13.790;2023-07-20T11:41:44;5.70;;;3.35;;
76761;SDS011;65705;51.032;13.790;2023-07-20T11:44:11;4.18;;;3.10;;
76761;SDS011;65705;51.032;13.790;2023-07-20T11:46:43;4.70;;;3.05;;
76761;SDS011;65705;51.032;13.790;2023-07-20T11:49:10;4.22;;;3.38;;
76761;SDS011;65705;51.032;13.790;2023-07-20T11:51:36;4.57;;;3.13;;
76761;SDS011;65705;51.032;13.790;2023-07-20T11:54:04;5.43;;;3.20;;
76761;SDS011;65705;51.032;13.790;2023-07-20T11:56:32;4.97;;;3.10;;
76761;SDS011;65705;51.032;13.790;2023-07-20T11:58:58;4.55;;;3.25;;
76761;SDS011;65705;51.032;13.790;2023-07-20T12:01:26;3.90;;;2.95;;
76761;SDS011;65705;51.032;13.790;2023-07-20T12:03:59;4.20;;;3.33;;
76761;SDS011;65705;51.032;13.790;2023-07-20T12:06:27;7.97;;;3.20;;
76761;SDS011;65705;51.032;13.790;2023-07-20T12:08:54;4.97;;;2.50;;
76761;SDS011;65705;51.032;13.790;2023-07-20T12:11:34;4.45;;;2.90;;
76761;SDS011;65705;51.032;13.790;2023-07-20T12:14:04;4.07;;;2.85;;
76761;SDS011;65705;51.032;13.790;2023-07-20T12:16:32;4.68;;;2.80;;
76761;SDS011;65705;51.032;13.790;2023-07-20T12:18:59;5.70;;;2.80;;
76761;SDS011;65705;51.032;13.790;2023-07-20T12:21:33;6.18;;;2.50;;
76761;SDS011;65705;51.032;13.790;2023-07-20T12:24:02;5.13;;;2.67;;
76761;SDS011;65705;51.032;13.790;2023-07-20T12:26:29;4.32;;;2.88;;
76761;SDS011;65705;51.032;13.790;2023-07-20T12:28:55;5.75;;;2.83;;
76761;SDS011;65705;51.032;13.790;2023-07-20T12:31:21;4.55;;;2.95;;
76761;SDS011;65705;51.032;13.790;2023-07-20T12:33:49;5.30;;;2.80;;
76761;SDS011;65705;51.032;13.790;2023-07-20T12:36:16;4.43;;;2.88;;
76761;SDS011;65705;51.032;13.790;2023-07-20T12:38:43;7.57;;;3.50;;
76761;SDS011;65705;51.032;13.790;2023-07-20T12:41:10;7.53;;;3.80;;
76761;SDS011;65705;51.032;13.790;2023-07-20T12:43:38;7.32;;;4.13;;
76761;SDS011;65705;51.032;13.790;2023-07-20T12:46:05;8.10;;;4.20;;
76761;SDS011;65705;51.032;13.790;2023-07-20T12:48:31;7.72;;;4.50;;
76761;SDS011;65705;51.032;13.790;2023-07-20T12:50:57;5.50;;;4.47;;
76761;SDS011;65705;51.032;13.790;2023-07-20T12:53:23;7.00;;;4.10;;
76761;SDS011;65705;51.032;13.790;2023-07-20T12:55:49;6.97;;;4.20;;
76761;SDS011;65705;51.032;13.790;2023-07-20T12:58:15;5.55;;;3.20;;
76761;SDS011;65705;51.032;13.790;2023-07-20T13:00:41;6.35;;;3.30;;
76761;SDS011;65705;51.032;13.790;2023-07-20T13:03:07;4.40;;;2.95;;
76761;SDS011;65705;51.032;13.790;2023-07-20T13:05:34;4.35;;;2.30;;
76761;SDS011;65705;51.032;13.790;2023-07-20T13:08:01;5.32;;;2.55;;
76761;SDS011;65705;51.032;13.790;2023-07-20T13:10:28;6.43;;;2.97;;
76761;SDS011;65705;51.032;13.790;2023-07-20T13:12:55;4.70;;;3.25;;
76761;SDS011;65705;51.032;13.790;2023-07-20T13:15:21;5.43;;;2.85;;
76761;SDS011;65705;51.032;13.790;2023-07-20T13:17:49;4.05;;;2.47;;
76761;SDS011;65705;51.032;13.790;2023-07-20T13:20:16;3.03;;;1.90;;
76761;SDS011;65705;51.032;13.790;2023-07-20T13:22:41;4.40;;;2.13;;
76761;SDS011;65705;51.032;13.790;2023-07-20T13:25:07;2.78;;;1.83;;
76761;SDS011;65705;51.032;13.790;2023-07-20T13:27:33;4.03;;;1.67;;
76761;SDS011;65705;51.032;13.790;2023-07-20T13:29:59;4.90;;;2.22;;
76761;SDS011;65705;51.032;13.790;2023-07-20T13:32:28;3.22;;;1.83;;
76761;SDS011;65705;51.032;13.790;2023-07-20T13:34:54;2.90;;;1.70;;
76761;SDS011;65705;51.032;13.790;2023-07-20T13:37:19;3.78;;;1.70;;
76761;SDS011;65705;51.032;13.790;2023-07-20T13:39:45;3.08;;;1.60;;
76761;SDS011;65705;51.032;13.790;2023-07-20T13:42:11;3.60;;;1.48;;
76761;SDS011;65705;51.032;13.790;2023-07-20T13:44:38;4.35;;;1.98;;
76761;SDS011;65705;51.032;13.790;2023-07-20T13:47:04;4.78;;;1.63;;
76761;SDS011;65705;51.032;13.790;2023-07-20T13:49:33;3.65;;;2.03;;
76761;SDS011;65705;51.032;13.790;2023-07-20T13:51:59;3.85;;;1.85;;
76761;SDS011;65705;51.032;13.790;2023-07-20T13:54:25;3.10;;;1.73;;
76761;SDS011;65705;51.032;13.790;2023-07-20T13:56:51;3.63;;;1.50;;
76761;SDS011;65705;51.032;13.790;2023-07-20T13:59:17;4.93;;;1.92;;
76761;SDS011;65705;51.032;13.790;2023-07-20T14:01:43;3.03;;;1.73;;
76761;SDS011;65705;51.032;13.790;2023-07-20T14:04:09;3.17;;;1.52;;
76761;SDS011;65705;51.032;13.790;2023-07-20T14:06:34;2.90;;;1.63;;
76761;SDS011;65705;51.032;13.790;2023-07-20T14:09:01;3.70;;;1.90;;
76761;SDS011;65705;51.032;13.790;2023-07-20T14:11:28;3.83;;;2.20;;
76761;SDS011;65705;51.032;13.790;2023-07-20T14:13:55;3.50;;;2.15;;
76761;SDS011;65705;51.032;13.790;2023-07-20T14:16:21;4.60;;;1.20;;
76761;SDS011;65705;51.032;13.790;2023-07-20T14:18:47;1.50;;;1.00;;
76761;SDS011;65705;51.032;13.790;2023-07-20T14:21:17;3.53;;;1.20;;
76761;SDS011;65705;51.032;13.790;2023-07-20T14:23:48;1.98;;;1.08;;
76761;SDS011;65705;51.032;13.790;2023-07-20T14:26:15;2.17;;;1.20;;
76761;SDS011;65705;51.032;13.790;2023-07-20T14:28:41;3.25;;;1.20;;
76761;SDS011;65705;51.032;13.790;2023-07-20T14:31:07;3.17;;;0.98;;
76761;SDS011;65705;51.032;13.790;2023-07-20T14:33:33;2.83;;;1.30;;
76761;SDS011;65705;51.032;13.790;2023-07-20T14:35:59;1.58;;;0.90;;
76761;SDS011;65705;51.032;13.790;2023-07-20T14:38:27;5.63;;;1.42;;
76761;SDS011;65705;51.032;13.790;2023-07-20T14:40:54;1.08;;;0.95;;
76761;SDS011;65705;51.032;13.790;2023-07-20T14:43:20;2.15;;;1.25;;
76761;SDS011;65705;51.032;13.790;2023-07-20T14:45:46;3.22;;;1.75;;
76761;SDS011;65705;51.032;13.790;2023-07-20T14:48:12;3.75;;;1.83;;
76761;SDS011;65705;51.032;13.790;2023-07-20T14:50:38;2.35;;;1.13;;
76761;SDS011;65705;51.032;13.790;2023-07-20T14:53:04;2.20;;;1.17;;
76761;SDS011;65705;51.032;13.790;2023-07-20T14:55:29;1.85;;;1.13;;
76761;SDS011;65705;51.032;13.790;2023-07-20T14:57:55;3.60;;;1.10;;
76761;SDS011;65705;51.032;13.790;2023-07-20T15:00:21;3.45;;;1.40;;
76761;SDS011;65705;51.032;13.790;2023-07-20T15:02:46;1.80;;;1.10;;